Flight Track Log - Related Links

Times and Time Zones

All times are in EST time to prevent confusion due to time zone crossing. See the BJS339 flight status page for this flight to view local times or setup timezone preferences in your user account.

Time Position Orientation Groundspeed Altitude Reporting Facility
EST Latitude Longitude Course Direction KTS MPH feet Rate Location/Type
Fri 02:25:14 PM 25.8003 -80.2700 80° East 155 178 1,000  Level Miami Center
Fri 02:26:40 PM 25.8150 -80.1733 80° East 247 284 4,800 2,493 Climbing Miami Center
Fri 02:27:36 PM 25.8800 -80.1614 North 303 349 6,900 1,269 Climbing Miami Center
Fri 02:28:24 PM 25.9358 -80.1861 338° Northwest 314 361 7,000 556 Climbing Miami Center
Fri 02:29:24 PM 26.0081 -80.2272 333° Northwest 312 359 7,900 1,900 Climbing Miami Center
Fri 02:30:24 PM 26.0417 -80.3069 295° West 282 325 10,800 2,900 Climbing Miami Center
Fri 02:31:24 PM 26.0753 -80.3864 295° West 276 318 13,700 2,400 Climbing Miami Center
Fri 02:32:24 PM 26.1147 -80.4894 293° West 308 354 15,600 1,900 Climbing Miami Center
Fri 02:33:24 PM 26.1561 -80.5878 295° West 325 374 17,500 1,850 Climbing Miami Center
Fri 02:34:24 PM 26.1972 -80.6864 295° West 346 398 19,300 1,600 Climbing Miami Center
Fri 02:35:24 PM 26.2328 -80.7686 296° West 352 405 20,700 1,650 Climbing Miami Center
Fri 02:36:24 PM 26.3156 -80.8686 313° West 366 421 22,600 1,600 Climbing Miami Center
Fri 02:37:24 PM 26.3867 -80.9428 317° Northwest 386 444 23,900 1,450 Climbing Miami Center
Fri 02:38:24 PM 26.4739 -81.0317 318° Northwest 392 451 25,500 1,550 Climbing Miami Center
Fri 02:39:24 PM 26.5553 -81.1111 319° Northwest 387 445 27,000 1,450 Climbing Miami Center
Fri 02:40:24 PM 26.6342 -81.1953 316° Northwest 387 445 28,400 1,250 Climbing Miami Center
Fri 02:41:24 PM 26.7153 -81.2775 318° Northwest 387 445 29,500 1,050 Climbing Miami Center
Fri 02:42:24 PM 26.7689 -81.3678 304° West 382 440 30,500 1,050 Climbing Miami Center
Fri 02:43:24 PM 26.8108 -81.4950 290° West 382 440 31,600 1,000 Climbing Miami Center
Fri 02:44:24 PM 26.8467 -81.6083 290° West 394 453 32,500 850 Climbing Miami Center
Fri 02:45:24 PM 26.8847 -81.7239 290° West 394 453 33,300 636 Climbing Miami Center
Fri 02:46:36 PM 26.9183 -81.8417 288° West 394 453 33,900 591 Climbing Miami Center
Fri 02:47:36 PM 26.9656 -81.9811 291° West 394 453 34,600 650 Climbing Miami Center
Fri 02:48:36 PM 27.0011 -82.0992 289° West 394 453 35,200 600 Climbing Miami Center
Fri 02:49:36 PM 27.0344 -82.2125 288° West 389 448 35,800 400 Climbing Miami Center
Fri 02:50:36 PM 27.0739 -82.3308 291° West 395 455 36,000 100 Climbing Miami Center
Fri 02:51:36 PM 27.1111 -82.4469 290° West 395 455 36,000  Level Miami Center
Fri 02:52:36 PM 27.1503 -82.5700 290° West 405 466 36,000  Level Miami Center
Fri 02:53:36 PM 27.1833 -82.6792 289° West 412 474 36,000  Level Miami Center
Fri 02:54:36 PM 27.2222 -82.8022 290° West 412 474 36,000  Level Miami Center
Fri 02:55:36 PM 27.2608 -82.9281 289° West 417 480 36,000  Level Miami Center
Fri 02:56:36 PM 27.2972 -83.0536 288° West 417 480 36,000  Level Miami Center
Fri 02:57:36 PM 27.3375 -83.1797 290° West 417 480 36,000  Level Miami Center
Fri 02:58:36 PM 27.3736 -83.3056 288° West 422 486 36,000  Level Miami Center
Fri 02:59:36 PM 27.4119 -83.4292 289° West 427 491 36,000  Level Miami Center
Fri 03:00:36 PM 27.4500 -83.5553 289° West 427 491 36,000  Level Miami Center
Fri 03:01:36 PM 27.4881 -83.6792 289° West 427 491 36,000  Level Miami Center
Fri 03:02:36 PM 27.5258 -83.8053 289° West 427 491 36,000  Level Miami Center
Fri 03:03:36 PM 27.5636 -83.9292 289° West 432 497 36,000  Level Miami Center
Fri 03:04:36 PM 27.6011 -84.0533 289° West 432 497 36,000  Level Miami Center
Fri 03:05:36 PM 27.6406 -84.1800 289° West 432 497 36,000  Level Miami Center
Fri 03:06:36 PM 27.6697 -84.3036 285° West 432 497 36,000  Level Miami Center
Fri 03:07:36 PM 27.7089 -84.4303 289° West 427 491 36,000  Level Miami Center
Fri 03:08:36 PM 27.7522 -84.5572 291° West 432 497 36,000  Level Miami Center
Fri 03:09:36 PM 27.7853 -84.6814 287° West 432 497 36,000  Level Miami Center
Fri 03:10:07 PM 27.8089 -84.7578 289° West 431 496 36,000  Level Jacksonville Center
Fri 03:11:07 PM 27.8425 -84.8828 287° West 436 502 36,000  Level Jacksonville Center
Fri 03:12:07 PM 27.8803 -84.9983 290° West 429 494 36,000  Level Jacksonville Center
Fri 03:13:07 PM 27.9133 -85.1331 286° West 424 488 36,000  Level Jacksonville Center
Fri 03:14:07 PM 27.9508 -85.2606 288° West 424 488 36,000  Level Jacksonville Center
Fri 03:15:07 PM 27.9861 -85.3836 288° West 429 494 36,000  Level Jacksonville Center
Fri 03:16:07 PM 28.0233 -85.5069 289° West 423 487 36,000  Level Jacksonville Center
Fri 03:17:07 PM 28.0581 -85.6347 287° West 423 487 36,000  Level Jacksonville Center
Fri 03:18:07 PM 28.0911 -85.7508 288° West 423 487 36,000  Level Jacksonville Center
Fri 03:19:07 PM 28.1214 -85.8836 285° West 423 487 36,000  Level Jacksonville Center
Fri 03:20:07 PM 28.1517 -86.0114 285° West 423 487 36,000  Level Jacksonville Center
Fri 03:21:07 PM 28.1822 -86.1350 286° West 418 481 36,000  Level Jacksonville Center
Fri 03:22:07 PM 28.2122 -86.2583 285° West 418 481 36,000  Level Jacksonville Center
Fri 03:23:07 PM 28.2422 -86.3842 285° West 418 481 36,000  Level Jacksonville Center
Fri 03:24:07 PM 28.2722 -86.5125 285° West 418 481 36,000  Level Jacksonville Center
Fri 03:25:07 PM 28.3000 -86.6383 284° West 418 481 36,000  Level Jacksonville Center
Fri 03:26:07 PM 28.3403 -86.7553 291° West 412 474 36,000  Level Jacksonville Center
Fri 03:27:07 PM 28.3953 -86.8683 299° West 405 466 36,000  Level Jacksonville Center
Fri 03:28:07 PM 28.4519 -86.9861 299° West 411 473 36,000  Level Jacksonville Center
Fri 03:29:07 PM 28.5008 -87.0897 298° West 402 463 36,000  Level Jacksonville Center
Fri 03:30:07 PM 28.5636 -87.2128 300° West 411 473 36,000  Level Jacksonville Center
Fri 03:31:08 PM 28.6144 -87.3219 298° West 408 470 36,000  Level Houston Center
Fri 03:32:11 PM 28.6681 -87.4358 298° West 412 474 36,000  Level Houston Center
Fri 03:33:13 PM 28.7242 -87.5528 299° West 419 482 36,000  Level Houston Center
Fri 03:34:15 PM 28.7786 -87.6686 298° West 417 480 36,000  Level Houston Center
Fri 03:35:17 PM 28.8336 -87.7842 299° West 414 476 36,000  Level Houston Center
Fri 03:36:19 PM 28.8994 -87.9233 298° West 416 479 36,000  Level Houston Center
Fri 03:37:21 PM 28.9531 -88.0389 298° West 413 475 36,000  Level Houston Center
Fri 03:38:24 PM 29.0081 -88.1558 298° West 414 476 36,000  Level Houston Center
Fri 03:39:26 PM 29.0633 -88.2708 299° West 415 478 36,000  Level Houston Center
Fri 03:40:28 PM 29.1197 -88.3861 299° West 415 478 36,000  Level Houston Center
Fri 03:41:30 PM 29.1747 -88.5017 299° West 414 476 36,000  Level Houston Center
Fri 03:42:32 PM 29.2411 -88.6411 299° West 415 478 36,000  Level Houston Center
Fri 03:43:34 PM 29.2958 -88.7589 298° West 418 481 36,000  Level Houston Center
Fri 03:44:37 PM 29.3522 -88.8742 299° West 417 480 36,000  Level Houston Center
Fri 03:45:39 PM 29.4061 -88.9900 298° West 414 476 36,000  Level Houston Center
Fri 03:46:41 PM 29.4619 -89.1072 299° West 416 479 36,000  Level Houston Center
Fri 03:47:43 PM 29.5172 -89.2244 298° West 417 480 36,000  Level Houston Center
Fri 03:48:45 PM 29.5831 -89.3664 298° West 419 482 36,000  Level Houston Center
Fri 03:49:47 PM 29.6381 -89.4831 298° West 417 480 36,000  Level Houston Center
Fri 03:50:49 PM 29.6933 -89.6022 298° West 419 482 36,000  Level Houston Center
Fri 03:51:51 PM 29.7478 -89.7206 298° West 419 482 36,000  Level Houston Center
Fri 03:52:54 PM 29.8025 -89.8400 298° West 420 483 36,000  Level Houston Center
Fri 03:53:56 PM 29.8572 -89.9572 298° West 415 478 36,000  Level Houston Center
Fri 03:54:58 PM 29.9122 -90.0767 298° West 417 480 36,000  Level Houston Center
Fri 03:56:00 PM 29.9786 -90.2217 298° West 422 486 36,000  Level Houston Center
Fri 03:57:02 PM 30.0339 -90.3433 298° West 426 490 36,000  Level Houston Center
Fri 03:58:04 PM 30.0878 -90.4603 298° West 416 479 36,000  Level Houston Center
Fri 03:59:06 PM 30.1400 -90.5728 298° West 399 459 36,000  Level Houston Center
Fri 04:00:10 PM 30.1911 -90.6875 297° West 401 461 36,000  Level Houston Center
Fri 04:01:11 PM 30.2439 -90.8047 298° West 409 471 36,000  Level Houston Center
Fri 04:02:13 PM 30.3089 -90.9472 298° West 416 479 36,000  Level Houston Center
Fri 04:03:15 PM 30.3614 -91.0642 298° West 412 474 36,000  Level Houston Center
Fri 04:04:17 PM 30.4136 -91.1811 297° West 410 472 36,000  Level Houston Center
Fri 04:05:19 PM 30.4667 -91.2981 298° West 409 471 36,000  Level Houston Center
Fri 04:06:21 PM 30.5192 -91.4161 297° West 412 474 36,000  Level Houston Center
Fri 04:07:24 PM 30.5789 -91.5528 297° West 410 472 36,000  Level Houston Center
Fri 04:08:26 PM 30.6450 -91.6589 306° West 409 471 36,000  Level Houston Center
Fri 04:09:28 PM 30.7317 -91.7525 317° Northwest 424 488 36,000  Level Houston Center
Fri 04:10:30 PM 30.8175 -91.8478 316° Northwest 426 490 36,000  Level Houston Center
Fri 04:11:32 PM 30.9039 -91.9436 316° Northwest 428 493 36,000  Level Houston Center
Fri 04:12:34 PM 31.0081 -92.0583 317° Northwest 431 496 36,000  Level Houston Center
Fri 04:13:36 PM 31.0953 -92.1572 316° Northwest 430 495 36,000  Level Houston Center
Fri 04:14:39 PM 31.1828 -92.2531 317° Northwest 432 497 36,000  Level Houston Center
Fri 04:15:41 PM 31.2697 -92.3492 317° Northwest 430 495 36,000  Level Houston Center
Fri 04:16:43 PM 31.3561 -92.4478 316° Northwest 434 499 36,000  Level Houston Center
Fri 04:17:45 PM 31.4417 -92.5433 316° Northwest 430 495 36,000  Level Houston Center
Fri 04:18:47 PM 31.5472 -92.6608 317° Northwest 434 499 36,000  Level Houston Center
Fri 04:19:49 PM 31.6333 -92.7578 316° Northwest 431 496 36,000  Level Houston Center
Fri 04:20:51 PM 31.7181 -92.8542 316° Northwest 426 490 36,000  Level Houston Center
Fri 04:21:54 PM 31.8031 -92.9503 316° Northwest 425 489 36,000  Level Houston Center
Fri 04:22:56 PM 31.8975 -93.0575 316° Northwest 426 490 36,000  Level Houston Center
Fri 04:23:58 PM 31.9825 -93.1544 316° Northwest 427 491 36,000  Level Houston Center
Fri 04:25:00 PM 32.0683 -93.2522 316° Northwest 429 494 36,000  Level Houston Center
Fri 04:26:03 PM 32.1550 -93.3511 316° Northwest 430 495 36,000  Level Fort Worth Center
Fri 04:27:05 PM 32.2492 -93.4619 315° West 435 501 36,000  Level Fort Worth Center
Fri 04:28:07 PM 32.3358 -93.5611 316° Northwest 434 499 36,000  Level Fort Worth Center
Fri 04:29:09 PM 32.4225 -93.6614 316° Northwest 435 501 36,000  Level Fort Worth Center
Fri 04:30:11 PM 32.5108 -93.7628 316° Northwest 439 505 36,000  Level Fort Worth Center
Fri 04:31:14 PM 32.6161 -93.8861 315° West 440 506 36,000  Level Fort Worth Center
Fri 04:32:16 PM 32.7025 -93.9864 316° Northwest 435 501 36,000  Level Fort Worth Center
Fri 04:33:18 PM 32.7878 -94.0858 316° Northwest 431 496 36,000  Level Fort Worth Center
Fri 04:34:20 PM 32.8731 -94.1864 315° West 429 494 36,000  Level Fort Worth Center
Fri 04:35:22 PM 32.9581 -94.2881 315° West 428 493 36,000  Level Fort Worth Center
Fri 04:36:24 PM 33.0444 -94.3889 316° Northwest 432 497 36,000  Level Fort Worth Center
Fri 04:37:26 PM 33.1306 -94.4919 315° West 436 502 36,000  Level Fort Worth Center
Fri 04:38:28 PM 33.2336 -94.6136 315° West 433 498 36,000  Level Fort Worth Center
Fri 04:39:30 PM 33.3178 -94.7156 315° West 431 496 36,000  Level Fort Worth Center
Fri 04:40:32 PM 33.4044 -94.8169 316° Northwest 436 502 36,000  Level Fort Worth Center
Fri 04:41:35 PM 33.4900 -94.9200 315° West 436 502 36,000  Level Fort Worth Center
Fri 04:42:37 PM 33.5725 -95.0225 314° West 431 496 36,000  Level Fort Worth Center
Fri 04:43:39 PM 33.6569 -95.1256 315° West 437 503 36,000  Level Fort Worth Center
Fri 04:44:41 PM 33.7594 -95.2475 315° West 434 499 36,000  Level Fort Worth Center
Fri 04:45:43 PM 33.8436 -95.3492 315° West 429 494 36,000  Level Fort Worth Center
Fri 04:46:45 PM 33.9267 -95.4506 315° West 426 490 36,000  Level Fort Worth Center
Fri 04:47:47 PM 34.0114 -95.5519 315° West 430 495 36,000  Level Fort Worth Center
Fri 04:48:49 PM 34.1008 -95.6650 314° West 418 481 36,000  Level Fort Worth Center
Fri 04:49:51 PM 34.1836 -95.7644 315° West 418 481 36,000  Level Fort Worth Center
Fri 04:50:53 PM 34.2650 -95.8658 314° West 418 481 36,000  Level Fort Worth Center
Fri 04:51:56 PM 34.3467 -95.9647 315° West 414 476 36,000  Level Fort Worth Center
Fri 04:52:58 PM 34.4283 -96.0683 314° West 428 493 36,000  Level Fort Worth Center
Fri 04:54:00 PM 34.5206 -96.1947 312° West 416 479 36,000  Level Fort Worth Center
Fri 04:55:02 PM 34.6061 -96.2894 318° Northwest 413 475 36,000  Level Fort Worth Center
Fri 04:56:04 PM 34.6872 -96.3925 314° West 418 481 36,000  Level Fort Worth Center
Fri 04:57:06 PM 34.7694 -96.4947 314° West 421 484 36,000  Level Fort Worth Center
Fri 04:58:08 PM 34.8506 -96.5978 314° West 422 486 36,000  Level Fort Worth Center
Fri 04:59:10 PM 34.9475 -96.7228 313° West 424 488 36,000  Level Fort Worth Center
Fri 05:00:13 PM 35.0286 -96.8256 314° West 421 484 36,000  Level Fort Worth Center
Fri 05:01:15 PM 35.1089 -96.9292 313° West 421 484 36,000  Level Fort Worth Center
Fri 05:01:27 PM 35.1247 -96.9500 313° West 420 483 36,000  Level Fort Worth Center
Fri 05:02:29 PM 35.2058 -97.0536 314° West 422 486 36,000  Level Fort Worth Center
Fri 05:03:31 PM 35.2875 -97.1578 314° West 424 488 36,000  Level Fort Worth Center
Fri 05:05:21 PM 35.4464 -97.3611 314° West 425 489 36,000  Level Kansas City Center
Fri 05:06:23 PM 35.5247 -97.4631 313° West 428 493 36,000  Level Kansas City Center
Fri 05:07:26 PM 35.6042 -97.5669 313° West 422 486 36,000  Level Kansas City Center
Fri 05:08:28 PM 35.6853 -97.6725 313° West 424 488 36,000  Level Kansas City Center
Fri 05:09:30 PM 35.7833 -97.8008 313° West 429 494 36,000  Level Kansas City Center
Fri 05:10:32 PM 35.8653 -97.9086 313° West 431 496 36,000  Level Kansas City Center
Fri 05:11:34 PM 35.9475 -98.0158 313° West 431 496 36,000  Level Kansas City Center
Fri 05:12:36 PM 36.0347 -98.1314 313° West 431 496 36,000  Level Kansas City Center
Fri 05:13:38 PM 36.1161 -98.2394 313° West 430 495 36,000  Level Kansas City Center
Fri 05:14:40 PM 36.1981 -98.3486 313° West 432 497 36,000  Level Kansas City Center
Fri 05:15:42 PM 36.2792 -98.4586 312° West 433 498 36,000  Level Kansas City Center
Fri 05:16:44 PM 36.3767 -98.5881 313° West 430 495 36,000  Level Kansas City Center
Fri 05:17:46 PM 36.4556 -98.6967 312° West 426 490 36,000  Level Kansas City Center
Fri 05:18:48 PM 36.5344 -98.8017 313° West 420 483 36,000  Level Kansas City Center
Fri 05:19:50 PM 36.6128 -98.9058 313° West 416 479 36,000  Level Kansas City Center
Fri 05:20:52 PM 36.6900 -99.0117 312° West 414 476 36,000  Level Kansas City Center
Fri 05:21:54 PM 36.7689 -99.1192 313° West 417 480 36,000  Level Kansas City Center
Fri 05:22:56 PM 36.8644 -99.2506 312° West 423 487 36,000  Level Kansas City Center
Fri 05:23:58 PM 36.9428 -99.3597 312° West 424 488 36,000  Level Kansas City Center
Fri 05:25:00 PM 37.0233 -99.4700 312° West 427 491 36,000  Level Kansas City Center
Fri 05:26:02 PM 37.1092 -99.5897 312° West 427 491 36,000  Level Kansas City Center
Fri 05:27:04 PM 37.1867 -99.6953 313° West 429 494 36,000  Level Kansas City Center
Fri 05:28:06 PM 37.2939 -99.8053 321° Northwest 449 517 36,000  Level Kansas City Center
Fri 05:29:08 PM 37.3992 -99.8883 328° Northwest 466 536 36,000  Level Kansas City Center
Fri 05:30:10 PM 37.5197 -99.9833 328° Northwest 461 531 36,000  Level Kansas City Center
Fri 05:31:12 PM 37.6233 -100.0653 328° Northwest 461 531 36,000  Level Kansas City Center
Fri 05:32:14 PM 37.7442 -100.1592 328° Northwest 459 528 36,000  Level Kansas City Center
Fri 05:33:16 PM 37.8478 -100.2381 329° Northwest 457 526 36,000  Level Kansas City Center
Fri 05:34:19 PM 37.9703 -100.3278 330° Northwest 458 527 36,000  Level Kansas City Center
Fri 05:35:21 PM 38.0650 -100.4122 325° Northwest 443 510 36,000  Level Kansas City Center
Fri 05:36:23 PM 38.1733 -100.5144 323° Northwest 436 502 36,000  Level Kansas City Center
Fri 05:37:25 PM 38.2650 -100.6031 323° Northwest 435 501 36,000  Level Kansas City Center
Fri 05:38:27 PM 38.3739 -100.7058 324° Northwest 437 503 36,000  Level Kansas City Center
Fri 05:39:29 PM 38.4672 -100.7953 323° Northwest 437 503 36,000  Level Kansas City Center
Fri 05:40:31 PM 38.5761 -100.9003 323° Northwest 439 505 36,000  Level Kansas City Center
Fri 05:41:33 PM 38.6597 -101.0014 317° Northwest 433 498 36,000  Level Kansas City Center
Fri 05:42:35 PM 38.7092 -101.1186 298° West 398 458 36,000  Level Kansas City Center
Fri 05:43:37 PM 38.7639 -101.2575 297° West 391 450 36,000  Level Kansas City Center
Fri 05:45:08 PM 38.8328 -101.4353 296° West 389 448 36,000  Level Denver Center
Fri 05:46:10 PM 38.8867 -101.5758 296° West 392 451 36,000  Level Denver Center
Fri 05:47:12 PM 38.9333 -101.6989 296° West 399 459 36,000  Level Denver Center
Fri 05:48:14 PM 38.9875 -101.8442 296° West 403 464 36,000  Level Denver Center
Fri 05:49:16 PM 39.0356 -101.9675 297° West 403 464 36,000  Level Denver Center
Fri 05:50:18 PM 39.0892 -102.1125 296° West 402 463 36,000  Level Denver Center
Fri 05:51:20 PM 39.1358 -102.2369 296° West 403 464 36,000  Level Denver Center
Fri 05:52:22 PM 39.1917 -102.3875 296° West 412 474 36,000  Level Denver Center
Fri 05:53:24 PM 39.2372 -102.5150 295° West 411 473 36,000  Level Denver Center
Fri 05:54:26 PM 39.2922 -102.6636 296° West 412 474 36,000  Level Denver Center
Fri 05:55:29 PM 39.3375 -102.7847 296° West 402 463 36,000  Level Denver Center
Fri 05:56:31 PM 39.3842 -102.9147 295° West 399 459 36,000  Level Denver Center
Fri 05:57:33 PM 39.4336 -103.0503 295° West 413 475 36,000  Level Denver Center
Fri 05:58:35 PM 39.4939 -103.2183 295° West 428 493 36,000  Level Denver Center
Fri 05:59:37 PM 39.5447 -103.3583 295° West 430 495 36,000  Level Denver Center
Fri 06:00:39 PM 39.5964 -103.5008 295° West 436 502 36,000  Level Denver Center
Fri 06:01:41 PM 39.6458 -103.6419 295° West 433 498 36,000 -387 Level Denver Center
Fri 06:02:43 PM 39.6969 -103.7850 295° West 440 506 35,200 -1,016 Descending Denver Center
Fri 06:03:45 PM 39.7553 -103.9528 294° West 419 482 33,900 -1,161 Descending Denver Center
Fri 06:04:47 PM 39.8022 -104.0883 294° West 414 476 32,800 -1,065 Descending Denver Center
Fri 06:05:49 PM 39.8489 -104.2222 294° West 410 472 31,700 -1,065 Descending Denver Center
Fri 06:06:51 PM 39.8961 -104.3572 295° West 414 476 30,600 -1,056 Descending Denver Center
Fri 06:07:54 PM 39.9428 -104.4936 294° West 414 476 29,500 -1,152 Descending Denver Center
Fri 06:08:56 PM 40.0017 -104.6672 294° West 438 504 28,200 -726 Descending Denver Center
Fri 06:09:58 PM 40.0331 -104.8125 286° West 423 487 28,000 -97 Descending Denver Center
Fri 06:11:00 PM 40.0328 -104.9653 270° West 422 486 28,000 -145 Level Denver Center
Fri 06:12:02 PM 40.0306 -105.1058 269° West 382 440 27,700 -484 Descending Denver Center
Fri 06:13:04 PM 40.0283 -105.2375 269° West 367 422 27,000 -339 Descending Denver Center
Fri 06:14:06 PM 40.0253 -105.3933 269° West 359 413 27,000 -677 Level Denver Center
Fri 06:15:08 PM 40.0239 -105.5253 269° West 366 421 25,600 -1,452 Descending Denver Center
Fri 06:16:10 PM 40.0208 -105.6578 268° West 356 410 24,000 -774 Descending Denver Center
Fri 06:17:12 PM 40.0194 -105.7850 269° West 326 375 24,000  Level Denver Center
Fri 06:18:14 PM 40.0164 -105.8869 268° West 319 367 24,000  Level Denver Center
Fri 06:19:16 PM 40.0133 -106.0339 268° West 336 387 24,000 -532 Level Denver Center
Fri 06:20:18 PM 40.0603 -106.1378 301° West 334 384 22,900 -1,392 Descending Denver Center
Fri 06:21:21 PM 40.1081 -106.2367 302° West 327 376 21,100 -912 Descending Denver Center
Fri 06:22:23 PM 40.1522 -106.3303 302° West 308 354 21,000 -44 Descending Denver Center
Fri 06:23:37 PM 40.2067 -106.4461 302° West 310 357 21,000 -219 Level Denver Center
Fri 06:24:40 PM 40.2556 -106.5503 302° West 313 360 20,500 -960 Descending Denver Center
Fri 06:25:42 PM 40.2869 -106.6525 292° West 312 359 19,000 -1,548 Descending Denver Center
Fri 06:26:44 PM 40.2861 -106.7600 269° West 297 342 17,300 -968 Descending Denver Center
Fri 06:27:46 PM 40.3581 -106.7811 347° North 311 358 17,000 -145 Descending Denver Center
Fri 06:28:48 PM 40.3789 -106.6422 79° East 330 380 17,000  Level Denver Center
Fri 06:29:50 PM 40.3750 -106.5358 93° East 303 349 17,000 -48 Level Denver Center
Fri 06:30:52 PM 40.3569 -106.4433 104° East 279 321 16,900 -339 Descending Denver Center
Fri 06:31:54 PM 40.2908 -106.4125 160° South 256 295 16,300 -435 Descending Denver Center
Fri 06:32:56 PM 40.2272 -106.4200 185° South 240 276 16,000 -339 Descending Denver Center
Fri 06:33:58 PM 40.1625 -106.4272 185° South 234 269 15,600 -484 Descending Denver Center
Fri 06:35:00 PM 40.0997 -106.4325 184° South 230 265 15,000 -726 Descending Denver Center
Fri 06:36:02 PM 40.0331 -106.4392 184° South 214 246 14,100 -480 Descending Denver Center
Fri 06:37:05 PM 39.9825 -106.4478 187° South 198 228 14,000 -48 Descending Denver Center
Fri 06:38:07 PM 39.9408 -106.4678 200° South 176 203 14,000  Level Denver Center
Fri 06:39:09 PM 39.8983 -106.4867 199° South 165 190 14,000  Level Denver Center
Fri 06:40:11 PM 39.8553 -106.5058 199° South 163 188 14,000  Level Denver Center
Fri 06:41:13 PM 39.8100 -106.5256 199° South 168 193 14,000 -242 Level Denver Center
Fri 06:42:15 PM 39.7611 -106.5453 197° South 179 206 13,500 -435 Descending Denver Center
Fri 06:43:17 PM 39.7089 -106.5669 198° South 180 207 13,100 -677 Descending Denver Center
Fri 06:44:19 PM 39.6867 -106.6156 239° Southwest 159 183 12,100 -1,016 Descending Denver Center
Fri 06:45:21 PM 39.6783 -106.6761 260° West 144 166 11,000 -1,016 Descending Denver Center
Fri 06:46:23 PM 39.6708 -106.7264 259° West 142 163 10,000 -968 Descending Denver Center
Fri 06:47:25 PM 39.6625 -106.7794 258° West 148 170 9,000 -968 Descending Denver Center
Fri 06:48:27 PM 39.6544 -106.8308 259° West 147 169 8,000 -968 Descending Denver Center
Fri 06:49:29 PM 39.6458 -106.8806 257° West 144 166 7,000 -968 Descending Denver Center

Login

Don't have an account? Register now (free) for customized features, flight alerts, and more!